Time;durP1;ratioP1;P1;durP2;ratioP2;P2;SDS_P1;SDS_P2;PMS_P1;PMS_P2;Temp;Humidity;BMP_temperature;BMP_pressure;BME280_temperature;BME280_humidity;BME280_pressure;Samples;Min_cycle;Max_cycle;Signal;HPM_P1;HPM_P2
2021/12/23 00:01:58;;;;;;;65.07;52.08;;;16.10;49.10;;;;;;4935687;28;95734;-70
2021/12/23 00:04:24;;;;;;;65.43;52.33;;;16.10;49.30;;;;;;4944017;28;89805;-70
2021/12/23 00:06:49;;;;;;;64.60;52.22;;;16.10;49.20;;;;;;4940992;28;90135;-70
2021/12/23 00:09:15;;;;;;;64.63;51.85;;;16.10;49.10;;;;;;4940190;28;90240;-70
2021/12/23 00:11:41;;;;;;;64.78;52.25;;;16.00;49.20;;;;;;4946739;28;88936;-70
2021/12/23 00:14:09;;;;;;;64.53;52.42;;;16.00;49.30;;;;;;4947493;28;90906;-70
2021/12/23 00:16:45;;;;;;;66.45;52.53;;;16.00;49.30;;;;;;4951668;28;90710;-71
2021/12/23 00:24:30;;;;;;;65.22;51.90;;;16.10;49.30;;;;;;4955154;28;89837;-71
2021/12/23 00:26:56;;;;;;;65.75;52.20;;;16.00;49.20;;;;;;4952779;28;92939;-70
2021/12/23 00:29:21;;;;;;;64.72;52.08;;;16.00;49.30;;;;;;4956535;28;91272;-70
2021/12/23 00:31:47;;;;;;;66.70;52.50;;;16.00;49.40;;;;;;4949329;28;90036;-70
2021/12/23 00:34:13;;;;;;;66.68;52.47;;;16.10;49.30;;;;;;4949658;28;90634;-71
2021/12/23 00:36:41;;;;;;;65.20;52.40;;;16.10;49.10;;;;;;4951406;28;89768;-70
2021/12/23 00:39:08;;;;;;;66.85;52.67;;;16.10;49.30;;;;;;4947439;28;90056;-70
2021/12/23 00:41:34;;;;;;;66.28;52.92;;;16.00;49.20;;;;;;4950133;28;91595;-70
2021/12/23 00:44:00;;;;;;;65.43;51.88;;;16.00;49.30;;;;;;4950538;28;92461;-70
2021/12/23 00:46:25;;;;;;;68.63;53.33;;;16.00;49.40;;;;;;4949792;28;91530;-70
2021/12/23 00:48:51;;;;;;;65.65;52.83;;;16.00;49.30;;;;;;4944726;28;89916;-71
2021/12/23 00:51:18;;;;;;;68.00;53.28;;;16.00;49.60;;;;;;4948430;28;90353;-70
2021/12/23 00:53:45;;;;;;;65.00;52.40;;;16.00;49.60;;;;;;4949860;28;91860;-70
2021/12/23 00:56:11;;;;;;;64.18;51.85;;;15.90;49.60;;;;;;4948036;28;91695;-71
2021/12/23 00:58:37;;;;;;;65.35;52.03;;;15.90;49.70;;;;;;4948364;28;90214;-70
2021/12/23 01:01:04;;;;;;;64.65;51.53;;;15.80;50.20;;;;;;4945820;28;91098;-70
2021/12/23 01:03:30;;;;;;;66.88;52.53;;;15.80;50.30;;;;;;4952149;28;89529;-70
2021/12/23 01:05:57;;;;;;;66.75;52.63;;;15.80;50.20;;;;;;4951844;28;89460;-70
2021/12/23 01:08:24;;;;;;;64.57;52.20;;;15.80;50.10;;;;;;4950804;28;91207;-70
2021/12/23 01:10:53;;;;;;;66.07;52.75;;;16.00;49.80;;;;;;4952797;28;89531;-70
2021/12/23 01:13:20;;;;;;;64.68;51.67;;;16.20;49.40;;;;;;4949991;28;90918;-70
2021/12/23 01:16:04;;;;;;;64.88;51.65;;;16.20;49.40;;;;;;4943343;28;90442;-71
2021/12/23 01:18:41;;;;;;;65.07;52.03;;;16.30;48.90;;;;;;4950527;28;90312;-71
2021/12/23 01:21:16;;;;;;;64.13;51.67;;;16.40;49.20;;;;;;4949725;28;90975;-70
2021/12/23 01:23:48;;;;;;;64.43;51.47;;;16.50;48.50;;;;;;4944595;28;89753;-70
2021/12/23 01:26:20;;;;;;;65.60;51.83;;;16.60;48.30;;;;;;4949516;28;90635;-70
2021/12/23 01:28:48;;;;;;;64.28;51.83;;;16.60;48.40;;;;;;4941943;28;90064;-70
2021/12/23 01:31:14;;;;;;;67.45;52.47;;;16.60;48.20;;;;;;4943219;28;91853;-70
2021/12/23 01:33:40;;;;;;;65.57;52.10;;;16.60;48.00;;;;;;4949829;28;95972;-70
2021/12/23 01:36:06;;;;;;;64.90;51.97;;;16.70;47.80;;;;;;4951434;28;90083;-70
2021/12/23 01:38:32;;;;;;;65.72;51.92;;;16.60;47.90;;;;;;4952513;28;95131;-70
2021/12/23 01:40:57;;;;;;;64.43;51.47;;;16.70;47.90;;;;;;4950436;28;89591;-70
2021/12/23 01:43:23;;;;;;;64.88;52.15;;;16.70;47.80;;;;;;4955634;28;89811;-70
2021/12/23 01:45:49;;;;;;;65.38;51.85;;;16.70;48.00;;;;;;4940908;28;90203;-70
2021/12/23 01:48:17;;;;;;;65.50;52.20;;;16.70;47.70;;;;;;4946602;28;89548;-70
2021/12/23 01:50:43;;;;;;;66.72;51.90;;;16.70;47.70;;;;;;4951583;28;88618;-70
2021/12/23 01:53:09;;;;;;;66.07;52.30;;;16.70;47.80;;;;;;4951935;28;89941;-70
2021/12/23 01:55:35;;;;;;;65.90;52.47;;;16.70;47.70;;;;;;4950668;28;89821;-70
2021/12/23 01:58:02;;;;;;;65.93;52.08;;;16.70;47.70;;;;;;4895409;28;91466;-70
2021/12/23 02:00:30;;;;;;;65.07;52.00;;;16.70;47.70;;;;;;4940235;28;94669;-70
2021/12/23 02:02:57;;;;;;;66.75;52.30;;;16.70;47.60;;;;;;4947872;28;91724;-70
2021/12/23 02:05:23;;;;;;;66.78;52.72;;;16.70;47.50;;;;;;4946623;28;89845;-70
2021/12/23 02:07:49;;;;;;;65.32;52.15;;;16.70;48.20;;;;;;4947215;28;90028;-70
2021/12/23 02:10:15;;;;;;;67.05;52.33;;;16.60;47.70;;;;;;4951814;28;89676;-70
2021/12/23 02:12:46;;;;;;;65.18;52.38;;;16.60;47.70;;;;;;4949392;28;94324;-70
2021/12/23 02:15:13;;;;;;;66.07;52.10;;;16.70;47.70;;;;;;4920356;28;90080;-71
2021/12/23 02:17:39;;;;;;;65.35;51.47;;;16.70;47.80;;;;;;4915354;28;90077;-71
2021/12/23 02:20:13;;;;;;;66.22;52.30;;;16.70;47.70;;;;;;4949570;28;89491;-71
2021/12/23 02:22:40;;;;;;;65.80;51.80;;;16.60;47.70;;;;;;4894509;28;91777;-71
2021/12/23 02:25:07;;;;;;;66.72;52.75;;;16.60;47.70;;;;;;4951356;28;90463;-70
2021/12/23 02:27:34;;;;;;;67.07;52.63;;;16.60;47.60;;;;;;4943642;28;90740;-70
2021/12/23 02:30:00;;;;;;;64.80;51.67;;;16.60;47.70;;;;;;4889358;28;93820;-70
2021/12/23 02:32:25;;;;;;;66.75;52.38;;;16.60;47.70;;;;;;4922631;28;90124;-71
2021/12/23 02:34:51;;;;;;;66.82;52.60;;;16.60;47.60;;;;;;4949286;28;89311;-70
2021/12/23 02:37:17;;;;;;;64.68;51.97;;;16.60;47.80;;;;;;4947724;28;90683;-70
2021/12/23 02:39:43;;;;;;;67.35;53.10;;;16.60;47.70;;;;;;4945327;28;94314;-69
2021/12/23 02:42:10;;;;;;;65.18;51.90;;;16.60;47.90;;;;;;4951905;28;91803;-70
2021/12/23 02:44:35;;;;;;;65.80;52.05;;;16.50;47.60;;;;;;4943499;28;90959;-70
2021/12/23 02:47:01;;;;;;;64.85;51.50;;;16.50;47.70;;;;;;4942762;28;90681;-71
2021/12/23 02:49:27;;;;;;;66.75;52.55;;;16.50;47.70;;;;;;4947555;28;90051;-70
2021/12/23 02:51:52;;;;;;;64.55;52.00;;;16.50;47.90;;;;;;4935412;28;89608;-70
2021/12/23 02:54:18;;;;;;;65.25;51.83;;;16.40;48.00;;;;;;4959561;28;92307;-70
2021/12/23 02:56:44;;;;;;;66.15;52.17;;;16.50;48.00;;;;;;4947584;28;92791;-70
2021/12/23 02:59:10;;;;;;;64.82;51.42;;;16.50;48.00;;;;;;4941960;28;89910;-69
2021/12/23 03:01:36;;;;;;;66.15;52.47;;;16.50;47.90;;;;;;4945123;28;90946;-70
2021/12/23 03:04:02;;;;;;;65.55;52.35;;;16.50;47.80;;;;;;4950136;28;88883;-69
2021/12/23 03:06:28;;;;;;;66.88;52.95;;;16.50;47.90;;;;;;4948005;28;90372;-70
2021/12/23 03:08:56;;;;;;;64.57;51.70;;;16.40;48.00;;;;;;4950679;28;89662;-70
2021/12/23 03:11:24;;;;;;;66.47;52.95;;;16.40;47.90;;;;;;4948880;28;90849;-70
2021/12/23 03:13:51;;;;;;;63.88;51.53;;;16.40;47.90;;;;;;4948651;28;91046;-70
2021/12/23 03:16:27;;;;;;;67.63;52.88;;;16.30;48.30;;;;;;4946753;28;91251;-70
2021/12/23 03:18:53;;;;;;;65.00;52.13;;;16.30;48.20;;;;;;4935823;28;90505;-69
2021/12/23 03:21:19;;;;;;;63.78;51.50;;;16.30;48.40;;;;;;4944018;28;91975;-68
2021/12/23 03:23:44;;;;;;;64.05;51.53;;;16.30;48.30;;;;;;4949463;28;89769;-68
2021/12/23 03:26:11;;;;;;;65.60;52.70;;;16.30;48.10;;;;;;4943093;28;91521;-68
2021/12/23 03:28:36;;;;;;;65.18;52.28;;;16.30;48.30;;;;;;4947115;28;89982;-68
2021/12/23 03:31:03;;;;;;;65.75;52.45;;;16.30;48.20;;;;;;4947080;28;90338;-68
2021/12/23 03:33:29;;;;;;;67.22;52.88;;;16.30;48.00;;;;;;4942089;28;90478;-68
2021/12/23 03:35:55;;;;;;;65.47;51.78;;;16.30;48.10;;;;;;4944077;28;97292;-68
2021/12/23 03:38:22;;;;;;;65.55;52.00;;;16.30;48.20;;;;;;4944161;28;90224;-69
2021/12/23 03:40:49;;;;;;;64.40;51.42;;;16.20;48.10;;;;;;4947390;28;90620;-68
2021/12/23 03:43:16;;;;;;;65.57;52.30;;;16.20;48.20;;;;;;4947859;28;91255;-68
2021/12/23 03:45:43;;;;;;;64.88;51.65;;;16.30;48.30;;;;;;4944071;28;90452;-68
2021/12/23 03:48:09;;;;;;;64.90;51.83;;;16.30;48.10;;;;;;4949833;28;89822;-68
2021/12/23 03:50:36;;;;;;;64.47;51.83;;;16.30;48.10;;;;;;4945092;28;90352;-69
2021/12/23 03:53:01;;;;;;;64.75;52.03;;;16.20;48.10;;;;;;4963664;28;92879;-68
2021/12/23 03:55:27;;;;;;;64.30;51.60;;;16.30;48.30;;;;;;4961827;28;95752;-68
2021/12/23 03:57:53;;;;;;;65.18;52.35;;;16.30;48.20;;;;;;4946236;28;89474;-68
2021/12/23 04:00:21;;;;;;;65.45;52.47;;;16.30;48.00;;;;;;4942495;28;90740;-68
2021/12/23 04:02:47;;;;;;;64.90;51.67;;;16.30;48.20;;;;;;4940329;28;93085;-69
2021/12/23 04:05:14;;;;;;;66.38;52.80;;;16.20;47.90;;;;;;4949353;28;95104;-68
2021/12/23 04:07:39;;;;;;;64.32;51.50;;;16.20;48.20;;;;;;4948362;28;89422;-68
2021/12/23 04:10:08;;;;;;;66.55;52.47;;;16.20;48.20;;;;;;4949803;28;90948;-68
2021/12/23 04:12:34;;;;;;;64.32;51.70;;;16.20;48.50;;;;;;4952182;28;91491;-69
2021/12/23 04:14:59;;;;;;;64.53;51.85;;;16.20;48.30;;;;;;4947634;28;90543;-68
2021/12/23 04:17:25;;;;;;;64.45;51.67;;;16.20;48.30;;;;;;4949096;28;89232;-68
2021/12/23 04:19:51;;;;;;;65.40;52.65;;;16.20;48.40;;;;;;4952840;28;89686;-68
2021/12/23 04:22:17;;;;;;;66.88;53.10;;;16.20;48.20;;;;;;4941421;28;90398;-68
2021/12/23 04:24:43;;;;;;;65.88;51.95;;;16.10;48.30;;;;;;4942750;28;90462;-68
2021/12/23 04:27:09;;;;;;;64.45;51.45;;;16.20;48.50;;;;;;4941104;28;91090;-68
2021/12/23 04:29:35;;;;;;;67.80;53.30;;;16.10;48.20;;;;;;4944657;28;95895;-68
2021/12/23 04:32:03;;;;;;;66.72;52.80;;;16.10;48.70;;;;;;4947342;28;90484;-68
2021/12/23 04:34:29;;;;;;;65.45;52.55;;;16.10;48.70;;;;;;4951199;28;89968;-68
2021/12/23 04:36:55;;;;;;;66.20;52.45;;;16.10;48.50;;;;;;4950739;28;91571;-69
2021/12/23 04:39:21;;;;;;;65.47;52.08;;;16.10;48.40;;;;;;4942816;28;89606;-68
2021/12/23 04:41:46;;;;;;;66.57;51.92;;;16.10;48.50;;;;;;4944989;28;91023;-68
2021/12/23 04:44:12;;;;;;;65.32;52.35;;;16.10;48.40;;;;;;4947030;28;89684;-68
2021/12/23 04:46:38;;;;;;;66.82;52.25;;;16.10;48.50;;;;;;4950966;28;90371;-68
2021/12/23 04:49:04;;;;;;;66.05;52.50;;;16.10;48.40;;;;;;4945006;28;96976;-68
2021/12/23 04:51:30;;;;;;;65.50;52.22;;;16.00;48.50;;;;;;4949135;28;89936;-68
2021/12/23 04:53:55;;;;;;;64.60;51.25;;;15.90;48.60;;;;;;4945122;28;89741;-68
2021/12/23 04:56:21;;;;;;;64.40;51.63;;;15.90;49.00;;;;;;4950239;28;89343;-68
2021/12/23 04:58:46;;;;;;;66.68;52.38;;;16.10;48.70;;;;;;4942014;28;91092;-68
2021/12/23 05:01:21;;;;;;;64.18;51.40;;;16.20;48.60;;;;;;4943931;28;91118;-69
2021/12/23 05:03:48;;;;;;;65.95;52.28;;;16.10;49.20;;;;;;4950143;28;92588;-68
2021/12/23 05:06:16;;;;;;;67.18;52.55;;;16.30;49.30;;;;;;4951877;28;93901;-69
2021/12/23 05:08:43;;;;;;;65.72;52.08;;;16.60;48.90;;;;;;4950436;28;90000;-68
2021/12/23 05:11:09;;;;;;;64.40;51.55;;;16.90;48.60;;;;;;4948039;28;90017;-69
2021/12/23 05:13:34;;;;;;;65.05;52.65;;;17.10;48.10;;;;;;4949682;28;90733;-68
2021/12/23 05:16:00;;;;;;;65.20;51.97;;;17.20;48.00;;;;;;4949077;28;90636;-68
2021/12/23 05:18:25;;;;;;;65.32;52.00;;;17.40;47.80;;;;;;4950873;28;90738;-68
2021/12/23 05:20:51;;;;;;;64.18;51.30;;;17.60;47.30;;;;;;4949418;28;91149;-68
2021/12/23 05:23:17;;;;;;;66.05;52.38;;;17.70;47.00;;;;;;4950264;28;94280;-68
2021/12/23 05:25:43;;;;;;;65.95;52.90;;;17.80;47.00;;;;;;4950111;28;90271;-68
2021/12/23 05:28:10;;;;;;;65.10;51.42;;;17.90;46.80;;;;;;4947954;28;91400;-69
2021/12/23 05:30:36;;;;;;;65.82;51.95;;;17.90;46.60;;;;;;4943214;28;91603;-68
2021/12/23 05:33:01;;;;;;;64.50;51.50;;;17.90;46.60;;;;;;4951468;28;89917;-68
2021/12/23 05:35:27;;;;;;;65.72;52.33;;;17.80;46.60;;;;;;4948355;28;90749;-68
2021/12/23 05:37:54;;;;;;;65.68;51.78;;;17.80;46.70;;;;;;4941335;28;92021;-68
2021/12/23 05:40:23;;;;;;;64.38;51.75;;;17.80;46.70;;;;;;4947307;28;90740;-68
2021/12/23 05:42:49;;;;;;;66.25;52.13;;;17.80;46.60;;;;;;4946570;28;90935;-69
2021/12/23 05:45:15;;;;;;;66.10;52.08;;;17.70;46.70;;;;;;4947281;28;90538;-68
2021/12/23 05:47:42;;;;;;;64.57;51.25;;;17.70;46.60;;;;;;4948571;28;91641;-68
2021/12/23 05:50:09;;;;;;;64.35;51.53;;;17.70;47.30;;;;;;4953366;28;89698;-68
2021/12/23 05:52:35;;;;;;;66.03;51.58;;;17.60;46.80;;;;;;4948279;28;89619;-68
2021/12/23 05:55:02;;;;;;;64.05;51.47;;;17.60;46.60;;;;;;4948020;28;88654;-68
2021/12/23 05:57:29;;;;;;;64.88;51.67;;;17.60;46.80;;;;;;4948376;28;89767;-68
2021/12/23 05:59:55;;;;;;;65.18;51.78;;;17.60;46.80;;;;;;4948837;28;94280;-68
2021/12/23 06:02:20;;;;;;;64.75;51.42;;;17.50;47.30;;;;;;4944231;28;91268;-68
2021/12/23 06:04:46;;;;;;;64.72;51.70;;;17.50;46.70;;;;;;4950439;28;89344;-68
2021/12/23 06:07:12;;;;;;;66.43;52.38;;;17.50;46.70;;;;;;4948278;28;90612;-68
2021/12/23 06:09:37;;;;;;;65.00;51.63;;;17.50;46.50;;;;;;4942113;28;90261;-70
2021/12/23 06:12:04;;;;;;;64.78;51.58;;;17.40;46.60;;;;;;4949965;28;89944;-68
2021/12/23 06:14:29;;;;;;;65.70;52.28;;;17.40;46.70;;;;;;4950159;28;90350;-68
2021/12/23 06:16:55;;;;;;;65.03;51.78;;;17.40;46.60;;;;;;4947877;28;90214;-68
2021/12/23 06:19:21;;;;;;;66.00;52.15;;;17.40;46.60;;;;;;4954232;28;89596;-68
2021/12/23 06:21:46;;;;;;;66.05;52.00;;;17.30;46.60;;;;;;4953476;28;89324;-68
2021/12/23 06:24:12;;;;;;;64.03;51.50;;;17.30;46.60;;;;;;4947901;28;90416;-68
2021/12/23 06:26:37;;;;;;;64.95;51.65;;;17.30;46.70;;;;;;4952940;28;91908;-68
2021/12/23 06:29:03;;;;;;;64.72;51.72;;;17.20;46.90;;;;;;4959447;28;93276;-68
2021/12/23 06:31:29;;;;;;;66.22;51.83;;;17.20;46.80;;;;;;4949260;28;89731;-68
2021/12/23 06:33:54;;;;;;;64.45;51.40;;;17.20;46.80;;;;;;4946731;28;96647;-68
2021/12/23 06:36:20;;;;;;;63.38;51.05;;;17.20;46.90;;;;;;4947385;28;90057;-68
2021/12/23 06:38:46;;;;;;;64.50;51.38;;;17.10;46.70;;;;;;4945760;28;90191;-68
2021/12/23 06:41:12;;;;;;;65.47;52.03;;;17.10;47.10;;;;;;4947037;28;90395;-69
2021/12/23 06:43:39;;;;;;;65.75;51.45;;;17.10;47.50;;;;;;4948935;28;95237;-68
2021/12/23 06:46:04;;;;;;;66.18;51.72;;;17.00;47.00;;;;;;4941973;28;90267;-68
2021/12/23 06:48:31;;;;;;;64.60;51.35;;;17.00;47.00;;;;;;4947021;28;89989;-69
2021/12/23 06:50:57;;;;;;;64.47;51.28;;;17.00;47.20;;;;;;4949615;28;90790;-69
2021/12/23 06:53:24;;;;;;;65.75;51.85;;;17.00;47.00;;;;;;4948582;28;90314;-68
2021/12/23 06:55:52;;;;;;;65.95;51.78;;;17.00;47.00;;;;;;4943059;28;91975;-69
2021/12/23 06:58:23;;;;;;;65.68;51.70;;;17.00;47.10;;;;;;4963572;28;91180;-69
2021/12/23 07:00:49;;;;;;;66.77;52.00;;;17.00;47.00;;;;;;4941887;28;90136;-69
2021/12/23 07:03:15;;;;;;;67.63;51.85;;;16.90;47.20;;;;;;4946741;28;90061;-69
2021/12/23 07:05:41;;;;;;;67.18;51.95;;;16.90;47.00;;;;;;4950502;28;90922;-69
2021/12/23 07:08:13;;;;;;;65.63;51.78;;;16.90;47.10;;;;;;4946535;28;88746;-68
2021/12/23 07:10:39;;;;;;;66.00;52.38;;;16.90;47.30;;;;;;4934910;28;92062;-72
2021/12/23 07:13:05;;;;;;;64.32;51.38;;;16.90;47.40;;;;;;4941955;28;92864;-71
2021/12/23 07:15:32;;;;;;;65.75;51.88;;;16.90;47.60;;;;;;4941842;28;91268;-71
2021/12/23 07:17:59;;;;;;;67.22;52.47;;;16.90;47.80;;;;;;4925899;28;91539;-70
2021/12/23 07:20:27;;;;;;;68.00;52.58;;;17.00;47.70;;;;;;4911122;28;93036;-72
2021/12/23 07:22:53;;;;;;;69.80;52.70;;;17.10;48.00;;;;;;4940251;28;89989;-74
2021/12/23 07:25:19;;;;;;;66.63;51.88;;;17.10;48.00;;;;;;4937707;28;90189;-73
2021/12/23 07:27:46;;;;;;;68.90;52.05;;;17.20;48.40;;;;;;4930782;28;92247;-73
2021/12/23 07:30:14;;;;;;;67.13;52.28;;;17.20;47.50;;;;;;4941478;28;90422;-73
2021/12/23 07:32:40;;;;;;;72.10;52.42;;;17.40;47.30;;;;;;4936996;28;90365;-72
2021/12/23 07:35:07;;;;;;;67.30;52.40;;;17.60;47.30;;;;;;4941168;28;89723;-72
2021/12/23 07:37:32;;;;;;;66.75;52.35;;;17.60;47.30;;;;;;4923820;28;91177;-72
2021/12/23 07:39:58;;;;;;;67.60;51.90;;;17.60;47.40;;;;;;4903103;28;91922;-72
2021/12/23 07:42:26;;;;;;;70.68;52.10;;;17.70;47.20;;;;;;4905569;28;91936;-74
2021/12/23 07:44:52;;;;;;;70.45;52.92;;;17.70;47.00;;;;;;4896624;28;96208;-72
2021/12/23 07:47:19;;;;;;;67.20;52.47;;;17.70;47.20;;;;;;4900387;28;90226;-72
2021/12/23 07:49:45;;;;;;;70.35;52.80;;;17.70;47.40;;;;;;4904557;28;91111;-72
2021/12/23 07:52:11;;;;;;;69.55;52.78;;;17.60;47.70;;;;;;4904071;28;91027;-72
2021/12/23 07:54:38;;;;;;;70.43;53.15;;;17.70;47.50;;;;;;4903886;28;91333;-72
2021/12/23 07:57:04;;;;;;;69.82;52.28;;;17.60;47.40;;;;;;4909231;28;89694;-75
2021/12/23 07:59:29;;;;;;;68.47;52.88;;;17.70;47.20;;;;;;4900834;28;90639;-73
2021/12/23 08:01:56;;;;;;;71.63;53.53;;;17.70;47.20;;;;;;4900702;28;91197;-72
2021/12/23 08:04:24;;;;;;;68.05;52.53;;;17.70;47.50;;;;;;4904910;28;95092;-72
2021/12/23 08:06:57;;;;;;;69.22;52.90;;;17.70;47.80;;;;;;4896273;28;90574;-72
2021/12/23 08:09:24;;;;;;;69.07;52.47;;;17.60;47.90;;;;;;4898998;28;91368;-73
2021/12/23 08:11:51;;;;;;;69.10;53.45;;;17.50;48.40;;;;;;4905017;28;98962;-71
2021/12/23 08:14:17;;;;;;;67.28;52.55;;;17.50;48.60;;;;;;4907588;28;90639;-72
2021/12/23 08:16:43;;;;;;;69.30;52.42;;;17.50;48.40;;;;;;4909866;28;91648;-72
2021/12/23 08:19:10;;;;;;;66.63;52.55;;;17.60;48.20;;;;;;4895443;28;90365;-72
2021/12/23 08:21:35;;;;;;;72.28;54.00;;;17.60;48.50;;;;;;4910933;28;89193;-73
2021/12/23 08:24:01;;;;;;;69.55;53.80;;;17.60;49.40;;;;;;4905529;28;90899;-73
2021/12/23 08:26:29;;;;;;;71.78;54.10;;;17.60;49.30;;;;;;4901646;28;92114;-72
2021/12/23 08:28:57;;;;;;;70.75;53.85;;;17.50;48.80;;;;;;4897456;28;92825;-73
2021/12/23 08:31:24;;;;;;;74.38;53.80;;;17.50;49.10;;;;;;4884619;28;95820;-73
2021/12/23 08:33:50;;;;;;;70.22;54.25;;;17.50;49.10;;;;;;4891149;28;91057;-72
2021/12/23 08:36:16;;;;;;;69.90;53.63;;;17.40;49.50;;;;;;4916594;28;91477;-72
2021/12/23 08:38:43;;;;;;;69.78;52.80;;;17.50;49.60;;;;;;4903266;28;91583;-72
2021/12/23 08:41:09;;;;;;;68.90;52.70;;;17.40;49.50;;;;;;4915787;28;91353;-73
2021/12/23 08:43:35;;;;;;;72.45;53.20;;;17.40;49.50;;;;;;4902380;28;91668;-72
2021/12/23 08:46:02;;;;;;;71.03;53.42;;;17.40;49.10;;;;;;4880205;28;92598;-71
2021/12/23 08:48:28;;;;;;;71.28;53.50;;;17.40;49.70;;;;;;4878114;28;95628;-71
2021/12/23 08:50:54;;;;;;;73.88;53.22;;;17.40;49.70;;;;;;4894821;28;89766;-72
2021/12/23 08:53:20;;;;;;;72.07;53.28;;;17.40;50.00;;;;;;4901564;28;93702;-70
2021/12/23 08:55:45;;;;;;;68.20;52.97;;;17.40;49.70;;;;;;4894539;28;91247;-71
2021/12/23 08:58:11;;;;;;;70.00;52.97;;;17.40;49.80;;;;;;4890389;28;90479;-71
2021/12/23 09:00:39;;;;;;;70.97;53.53;;;17.40;49.80;;;;;;4886651;28;92225;-71
2021/12/23 09:03:06;;;;;;;69.97;53.38;;;17.40;49.40;;;;;;4890719;28;93618;-71
2021/12/23 09:05:33;;;;;;;73.47;53.60;;;17.40;49.20;;;;;;4896215;28;92482;-71
2021/12/23 09:07:59;;;;;;;70.25;53.15;;;17.40;49.20;;;;;;4906463;28;90969;-71
2021/12/23 09:10:25;;;;;;;70.50;53.58;;;17.40;49.50;;;;;;4906744;28;89053;-71
2021/12/23 09:12:52;;;;;;;69.93;53.55;;;17.40;50.00;;;;;;4904717;28;90788;-71
2021/12/23 09:15:18;;;;;;;69.63;52.85;;;17.50;49.70;;;;;;4901386;28;91463;-71
2021/12/23 09:17:45;;;;;;;74.38;53.97;;;17.60;49.70;;;;;;4903078;28;92650;-71
2021/12/23 09:20:13;;;;;;;70.43;53.55;;;17.70;50.10;;;;;;4908802;28;91464;-70
2021/12/23 09:22:39;;;;;;;73.05;52.90;;;17.80;49.80;;;;;;4903349;28;91162;-71
2021/12/23 09:25:11;;;;;;;68.90;53.63;;;17.90;49.50;;;;;;4902612;28;89595;-72
2021/12/23 09:33:08;;;;;;;71.82;53.28;;;18.30;49.40;;;;;;4896592;28;92068;-71
2021/12/23 09:35:34;;;;;;;70.35;53.63;;;18.40;49.40;;;;;;4901786;28;93988;-70
2021/12/23 09:38:01;;;;;;;75.28;53.78;;;18.50;48.90;;;;;;4887549;28;94727;-71
2021/12/23 09:40:29;;;;;;;70.32;54.00;;;18.40;48.90;;;;;;4889404;28;92867;-71
2021/12/23 09:42:59;;;;;;;69.25;53.45;;;18.50;48.60;;;;;;4887637;28;92638;-71
2021/12/23 09:45:25;;;;;;;70.47;53.00;;;18.50;48.60;;;;;;4894399;28;91965;-71
2021/12/23 09:47:51;;;;;;;72.45;53.35;;;18.60;48.50;;;;;;4891148;28;91841;-71
2021/12/23 09:50:21;;;;;;;71.53;53.53;;;18.60;48.40;;;;;;4895016;28;91123;-71
2021/12/23 09:52:49;;;;;;;70.88;53.83;;;18.60;48.10;;;;;;4894664;28;92150;-71
2021/12/23 09:55:18;;;;;;;71.35;53.90;;;18.70;48.00;;;;;;4888160;28;91687;-71
2021/12/23 09:57:46;;;;;;;70.57;53.40;;;18.70;47.90;;;;;;4889539;28;90304;-71
2021/12/23 10:00:14;;;;;;;71.50;54.17;;;18.70;48.10;;;;;;4893767;28;91274;-71
2021/12/23 10:02:41;;;;;;;69.28;53.83;;;18.70;47.70;;;;;;4901091;28;93593;-71
2021/12/23 10:05:13;;;;;;;68.78;53.22;;;18.60;48.40;;;;;;4888561;28;90660;-73
2021/12/23 10:07:41;;;;;;;70.38;53.85;;;18.60;48.00;;;;;;4879899;28;92549;-73
2021/12/23 10:10:18;;;;;;;69.78;53.38;;;18.70;47.70;;;;;;4872789;28;99370;-71
2021/12/23 10:37:29;;;;;;;72.60;54.58;;;18.60;47.90;;;;;;4895142;28;90624;-71
2021/12/23 10:40:04;;;;;;;76.57;53.67;;;18.50;48.50;;;;;;4902281;28;98699;-73
2021/12/23 10:42:31;;;;;;;73.70;53.92;;;18.50;47.90;;;;;;4910528;28;93104;-75
2021/12/23 10:45:01;;;;;;;71.15;53.42;;;18.40;48.00;;;;;;4907674;28;90450;-75
2021/12/23 10:47:46;;;;;;;71.30;53.55;;;18.30;47.80;;;;;;4930998;28;94617;-75
2021/12/23 10:50:20;;;;;;;72.40;53.33;;;18.30;47.80;;;;;;4906308;28;90204;-73
2021/12/23 10:52:55;;;;;;;69.22;53.58;;;18.30;48.20;;;;;;4908010;28;92158;-72
2021/12/23 10:58:04;;;;;;;72.30;53.60;;;18.30;48.60;;;;;;4906648;28;91190;-75
2021/12/23 11:00:41;;;;;;;72.38;53.63;;;18.30;48.30;;;;;;4901927;28;92422;-74
2021/12/23 11:03:13;;;;;;;71.85;54.35;;;18.30;48.50;;;;;;4901816;28;93075;-73
2021/12/23 11:05:53;;;;;;;72.25;53.80;;;18.30;48.60;;;;;;4912570;28;90389;-74
2021/12/23 11:08:33;;;;;;;70.55;54.72;;;18.30;48.30;;;;;;4908031;28;90715;-75
2021/12/23 11:39:33;;;;;;;72.57;54.05;;;18.80;47.20;;;;;;4912956;28;90006;-75
2021/12/23 11:42:31;;;;;;;75.05;54.20;;;18.80;47.50;;;;;;4916767;28;91705;-74
2021/12/23 11:44:47;;;;;;;72.63;53.78;;;18.80;47.20;;;;;;4913814;28;89722;-74
2021/12/23 11:47:15;;;;;;;76.55;54.80;;;18.90;47.20;;;;;;4916673;28;89910;-75
2021/12/23 11:49:44;;;;;;;73.63;54.03;;;18.90;47.10;;;;;;4911778;28;92892;-75
2021/12/23 11:52:10;;;;;;;70.78;54.30;;;18.90;46.90;;;;;;4918080;28;92619;-76
2021/12/23 11:54:37;;;;;;;71.65;54.28;;;19.00;47.00;;;;;;4934801;28;92230;-75
2021/12/23 11:57:05;;;;;;;70.07;54.05;;;19.00;46.80;;;;;;4908900;28;89624;-75
2021/12/23 11:59:35;;;;;;;71.95;54.50;;;19.00;47.10;;;;;;4905504;28;90662;-75
2021/12/23 12:02:01;;;;;;;70.50;54.63;;;18.90;46.60;;;;;;4900214;28;94842;-75
2021/12/23 12:04:29;;;;;;;71.88;54.22;;;18.90;46.80;;;;;;4924226;28;90772;-75
2021/12/23 12:06:56;;;;;;;72.47;54.45;;;18.90;47.10;;;;;;4917745;28;90415;-75
2021/12/23 12:09:27;;;;;;;71.28;53.70;;;18.80;47.00;;;;;;4916783;28;89969;-75
2021/12/23 12:11:59;;;;;;;68.55;53.47;;;18.80;46.70;;;;;;4911378;28;91031;-74
2021/12/23 12:14:36;;;;;;;73.05;54.35;;;18.70;47.20;;;;;;4921140;28;89788;-75
2021/12/23 12:17:24;;;;;;;74.55;54.38;;;18.70;47.20;;;;;;4919805;28;91272;-76
2021/12/23 12:19:57;;;;;;;72.30;54.38;;;18.70;47.30;;;;;;4918125;28;93562;-75
2021/12/23 12:22:48;;;;;;;73.18;54.63;;;18.60;46.90;;;;;;4925495;28;92438;-76
2021/12/23 12:25:23;;;;;;;70.55;53.70;;;18.50;47.10;;;;;;4913116;28;90716;-76
2021/12/23 12:28:09;;;;;;;73.90;54.25;;;18.40;47.40;;;;;;4911638;28;91199;-76
2021/12/23 12:30:38;;;;;;;72.50;54.88;;;18.40;47.50;;;;;;4906681;28;94161;-74
2021/12/23 12:33:05;;;;;;;72.68;55.17;;;18.50;47.70;;;;;;4900475;28;97039;-74
2021/12/23 12:35:30;;;;;;;74.32;54.75;;;18.50;47.80;;;;;;4899121;28;90708;-75
2021/12/23 12:38:18;;;;;;;70.38;54.17;;;18.50;48.50;;;;;;4910334;28;90438;-72
2021/12/23 12:40:57;;;;;;;73.35;54.08;;;18.50;48.40;;;;;;4905776;28;89857;-75
2021/12/23 12:43:41;;;;;;;76.32;54.40;;;18.50;48.60;;;;;;4914852;28;91054;-73
2021/12/23 12:46:07;;;;;;;72.97;54.20;;;18.50;49.10;;;;;;4901347;28;91726;-73
2021/12/23 12:48:59;;;;;;;73.32;53.50;;;18.50;49.10;;;;;;4896384;28;96165;-75
2021/12/23 12:51:34;;;;;;;79.80;54.28;;;18.50;49.00;;;;;;4942102;28;92298;-73
2021/12/23 12:54:06;;;;;;;70.63;54.70;;;18.50;48.90;;;;;;4948846;28;89985;-72
2021/12/23 12:56:35;;;;;;;72.47;53.78;;;18.50;49.00;;;;;;4949536;28;91327;-74
2021/12/23 12:59:00;;;;;;;75.80;54.85;;;18.40;49.20;;;;;;4940202;28;90013;-74
2021/12/23 13:01:42;;;;;;;72.88;53.85;;;18.40;49.60;;;;;;4942653;28;93717;-73
2021/12/23 13:04:30;;;;;;;71.68;54.83;;;18.40;49.50;;;;;;4936264;28;92518;-73
2021/12/23 13:06:57;;;;;;;76.97;55.13;;;18.40;49.50;;;;;;4957728;28;89839;-72
2021/12/23 13:09:28;;;;;;;75.47;54.72;;;18.50;49.50;;;;;;4943077;28;89955;-72
2021/12/23 13:11:58;;;;;;;;;;;18.60;49.40;;;;;;4948237;28;91998;-72
2021/12/23 13:14:43;;;;;;;76.18;54.25;;;18.60;49.30;;;;;;4950352;28;89737;-73
2021/12/23 13:17:09;;;;;;;75.60;54.60;;;18.60;48.80;;;;;;4952702;28;89871;-73
2021/12/23 13:19:35;;;;;;;74.00;54.22;;;18.60;49.40;;;;;;4938723;28;90199;-73
2021/12/23 13:22:05;;;;;;;73.40;54.35;;;18.60;49.50;;;;;;4936202;28;91388;-73
2021/12/23 13:24:32;;;;;;;74.15;54.15;;;18.60;49.40;;;;;;4918691;28;91053;-72
2021/12/23 13:26:59;;;;;;;74.15;54.42;;;18.60;49.90;;;;;;4903439;28;91030;-71
2021/12/23 13:29:29;;;;;;;71.70;54.60;;;18.60;50.00;;;;;;4907628;28;91189;-73
2021/12/23 13:31:57;;;;;;;76.32;55.05;;;18.60;50.40;;;;;;4923853;28;91620;-72
2021/12/23 13:34:26;;;;;;;72.53;54.20;;;18.60;50.50;;;;;;4918906;28;91158;-73
2021/12/23 13:36:53;;;;;;;71.70;54.33;;;18.60;50.70;;;;;;4944749;28;90929;-72
2021/12/23 13:39:22;;;;;;;73.03;54.30;;;18.60;50.70;;;;;;4919205;28;91207;-72